createdAt,value
2018-12-21T00:00:18.163Z,100206.70
2018-12-21T00:01:24.235Z,100208.50
2018-12-21T00:02:30.615Z,100203.14
2018-12-21T00:03:37.066Z,100210.78
2018-12-21T00:04:43.664Z,100211.16
2018-12-21T00:05:49.252Z,100218.15
2018-12-21T00:06:55.336Z,100218.17
2018-12-21T00:08:02.498Z,100215.23
2018-12-21T00:09:08.676Z,100210.06
2018-12-21T00:10:14.979Z,100216.11
2018-12-21T00:11:21.408Z,100213.05
2018-12-21T00:12:27.857Z,100214.50
2018-12-21T00:13:35.289Z,100213.09
2018-12-21T00:14:41.726Z,100218.81
2018-12-21T00:15:48.104Z,100222.78
2018-12-21T00:16:56.110Z,100223.13
2018-12-21T00:18:02.461Z,100217.23
2018-12-21T00:19:08.923Z,100222.24
2018-12-21T00:20:16.786Z,100224.63
2018-12-21T00:21:23.795Z,100220.98
2018-12-21T00:22:30.152Z,100214.19
2018-12-21T00:23:36.956Z,100217.48
2018-12-21T00:24:44.432Z,100212.17
2018-12-21T00:25:51.474Z,100207.80
2018-12-21T00:26:57.949Z,100215.22
2018-12-21T00:28:04.241Z,100211.62
2018-12-21T00:29:11.347Z,100215.30
2018-12-21T00:30:18.233Z,100210.30
2018-12-21T00:31:30.386Z,100207.89
2018-12-21T00:32:42.527Z,100206.48
2018-12-21T00:33:54.188Z,100200.88
2018-12-21T00:35:06.045Z,100196.05
2018-12-21T00:36:18.619Z,100203.14
2018-12-21T00:37:30.885Z,100200.05
2018-12-21T00:38:42.726Z,100201.95
2018-12-21T00:39:54.920Z,100195.71
2018-12-21T00:41:07.233Z,100189.67
2018-12-21T00:42:13.007Z,100191.05
2018-12-21T00:43:22.773Z,100187.16
2018-12-21T00:44:29.139Z,100188.02
2018-12-21T00:45:36.017Z,100182.78
2018-12-21T00:46:42.177Z,100190.63
2018-12-21T00:47:48.323Z,100192.60
2018-12-21T00:48:55.541Z,100188.05
2018-12-21T00:50:01.633Z,100190.59
2018-12-21T00:51:07.954Z,100187.81
2018-12-21T00:52:15.294Z,100185.63
2018-12-21T00:53:22.424Z,100185.00
2018-12-21T00:54:28.274Z,100188.44
2018-12-21T00:55:34.889Z,100185.23
2018-12-21T00:56:41.718Z,100187.81
2018-12-21T00:57:48.119Z,100190.61
2018-12-21T00:58:56.001Z,100188.23
2018-12-21T01:00:01.794Z,100192.67
2018-12-21T01:01:07.768Z,100192.63
2018-12-21T01:02:14.312Z,100194.23
2018-12-21T01:03:21.112Z,100196.53
2018-12-21T01:04:27.623Z,100190.41
2018-12-21T01:05:34.697Z,100189.52
2018-12-21T01:06:41.430Z,100185.75
2018-12-21T01:07:47.506Z,100190.85
2018-12-21T01:08:53.540Z,100195.41
2018-12-21T01:09:59.789Z,100192.06
2018-12-21T01:11:06.910Z,100197.49
2018-12-21T01:12:13.086Z,100193.37
2018-12-21T01:13:19.203Z,100193.91
2018-12-21T01:14:25.306Z,100195.30
2018-12-21T01:15:31.618Z,100191.84
2018-12-21T01:16:38.008Z,100197.85
2018-12-21T01:17:46.106Z,100188.05
2018-12-21T01:18:53.327Z,100193.49
2018-12-21T01:19:59.754Z,100195.01
2018-12-21T01:21:06.101Z,100194.75
2018-12-21T01:22:13.556Z,100199.91
2018-12-21T01:23:20.608Z,100197.25
2018-12-21T01:24:27.055Z,100198.47
2018-12-21T01:25:33.495Z,100188.55
2018-12-21T01:26:39.984Z,100194.03
2018-12-21T01:27:46.437Z,100200.09
2018-12-21T01:28:52.833Z,100198.16
2018-12-21T01:29:58.837Z,100199.44
2018-12-21T01:31:05.045Z,100199.31
2018-12-21T01:32:11.584Z,100197.91
2018-12-21T01:33:18.685Z,100205.61
2018-12-21T01:34:25.862Z,100205.94
2018-12-21T01:35:33.481Z,100201.60
2018-12-21T01:36:39.804Z,100206.95
2018-12-21T01:37:47.064Z,100205.78
2018-12-21T01:38:54.749Z,100199.59
2018-12-21T01:40:01.243Z,100206.48
2018-12-21T01:41:07.844Z,100200.00
2018-12-21T01:42:14.292Z,100203.72
2018-12-21T01:43:20.769Z,100209.34
2018-12-21T01:44:27.276Z,100200.78
2018-12-21T01:45:34.212Z,100204.14
2018-12-21T01:46:41.502Z,100200.66
2018-12-21T01:47:48.936Z,100201.72
2018-12-21T01:48:55.821Z,100188.38
2018-12-21T01:50:02.223Z,100196.13
2018-12-21T01:51:10.115Z,100195.00
2018-12-21T01:52:16.307Z,100190.66
2018-12-21T01:53:22.842Z,100187.03
2018-12-21T01:54:29.254Z,100193.47
2018-12-21T01:55:35.413Z,100187.48
2018-12-21T01:56:41.122Z,100183.03
2018-12-21T01:57:47.472Z,100186.64
2018-12-21T01:58:54.168Z,100183.55
2018-12-21T02:00:02.380Z,100174.58
2018-12-21T02:01:09.159Z,100174.43
2018-12-21T02:02:14.828Z,100175.23
2018-12-21T02:03:20.839Z,100178.11
2018-12-21T02:04:26.897Z,100177.82
2018-12-21T02:05:34.445Z,100173.48
2018-12-21T02:06:40.872Z,100173.89
2018-12-21T02:07:47.252Z,100170.95
2018-12-21T02:08:55.019Z,100173.05
2018-12-21T02:10:01.465Z,100165.51
2018-12-21T02:11:08.143Z,100167.41
2018-12-21T02:12:15.131Z,100156.55
2018-12-21T02:13:21.497Z,100164.37
2018-12-21T02:14:28.095Z,100159.86
2018-12-21T02:15:35.214Z,100158.13
2018-12-21T02:16:42.408Z,100158.33
2018-12-21T02:17:49.058Z,100155.23
2018-12-21T02:18:55.496Z,100153.72
2018-12-21T02:20:02.136Z,100159.88
2018-12-21T02:21:09.279Z,100152.28
2018-12-21T02:22:15.642Z,100153.95
2018-12-21T02:23:22.189Z,100148.50
2018-12-21T02:24:29.620Z,100144.59
2018-12-21T02:25:36.705Z,100147.95
2018-12-21T02:26:43.648Z,100147.05
2018-12-21T02:27:49.781Z,100146.88
2018-12-21T02:28:55.756Z,100145.11
2018-12-21T02:30:02.496Z,100149.53
2018-12-21T02:31:09.360Z,100140.97
2018-12-21T02:32:16.775Z,100141.21
2018-12-21T02:33:24.316Z,100140.45
2018-12-21T02:34:30.733Z,100139.38
2018-12-21T02:35:37.222Z,100139.11
2018-12-21T02:36:43.581Z,100141.86
2018-12-21T02:37:50.389Z,100138.70
2018-12-21T02:38:57.242Z,100140.42
2018-12-21T02:40:04.039Z,100142.30
2018-12-21T02:41:10.438Z,100140.30
2018-12-21T02:42:16.840Z,100141.39
2018-12-21T02:43:24.959Z,100140.22
2018-12-21T02:44:31.031Z,100145.19
2018-12-21T02:45:37.418Z,100144.02
2018-12-21T02:46:43.977Z,100143.02
2018-12-21T02:47:49.944Z,100138.02
2018-12-21T02:48:56.473Z,100134.67
2018-12-21T02:50:03.424Z,100134.97
2018-12-21T02:51:10.981Z,100130.56
2018-12-21T02:52:18.873Z,100132.86
2018-12-21T02:53:25.325Z,100127.27
2018-12-21T02:54:31.775Z,100127.33
2018-12-21T02:55:38.200Z,100127.48
2018-12-21T02:56:44.529Z,100124.90
2018-12-21T02:57:51.088Z,100119.94
2018-12-21T02:58:57.634Z,100119.45
2018-12-21T03:00:03.660Z,100119.10
2018-12-21T03:01:11.727Z,100118.83
2018-12-21T03:02:20.014Z,100118.20
2018-12-21T03:03:26.369Z,100112.70
2018-12-21T03:04:32.832Z,100118.13
2018-12-21T03:05:39.938Z,100112.52
2018-12-21T03:06:46.354Z,100116.23
2018-12-21T03:07:52.835Z,100110.92
2018-12-21T03:08:59.320Z,100110.89
2018-12-21T03:10:06.122Z,100111.00
2018-12-21T03:11:12.983Z,100108.21
2018-12-21T03:12:20.260Z,100109.19
2018-12-21T03:13:29.319Z,100108.08
2018-12-21T03:14:36.892Z,100107.11
2018-12-21T03:15:43.561Z,100095.67
2018-12-21T03:16:50.010Z,100105.55
2018-12-21T03:17:56.127Z,100095.50
2018-12-21T03:19:02.344Z,100090.55
2018-12-21T03:20:09.006Z,100082.23
2018-12-21T03:21:15.238Z,100085.59
2018-12-21T03:22:23.139Z,100085.22
2018-12-21T03:23:30.225Z,100079.61
2018-12-21T03:24:36.955Z,100082.02
2018-12-21T03:25:44.204Z,100073.52
2018-12-21T03:26:51.938Z,100070.45
2018-12-21T03:27:58.366Z,100073.84
2018-12-21T03:29:05.564Z,100080.14
2018-12-21T03:30:12.138Z,100060.16
2018-12-21T03:31:18.608Z,100065.70
2018-12-21T03:32:26.284Z,100066.64
2018-12-21T03:33:33.413Z,100074.48
2018-12-21T03:34:39.895Z,100067.97
2018-12-21T03:35:47.498Z,100069.30
2018-12-21T03:36:53.841Z,100074.84
2018-12-21T03:38:00.307Z,100072.94
2018-12-21T03:39:07.040Z,100067.73
2018-12-21T03:40:14.200Z,100069.25
2018-12-21T03:41:20.985Z,100068.52
2018-12-21T03:42:28.560Z,100067.56
2018-12-21T03:43:35.462Z,100077.39
2018-12-21T03:44:41.588Z,100064.62
2018-12-21T03:45:48.418Z,100077.02
2018-12-21T03:46:56.207Z,100074.82
2018-12-21T03:48:02.623Z,100076.47
2018-12-21T03:49:09.930Z,100078.42
2018-12-21T03:50:16.879Z,100076.67
2018-12-21T03:51:23.628Z,100069.23
2018-12-21T03:52:29.976Z,100076.88
2018-12-21T03:53:36.446Z,100079.36
2018-12-21T03:54:43.519Z,100079.64
2018-12-21T03:55:50.093Z,100080.43
2018-12-21T03:56:57.019Z,100083.00
2018-12-21T03:58:04.560Z,100082.66
2018-12-21T03:59:11.004Z,100080.02
2018-12-21T04:00:17.420Z,100081.19
2018-12-21T04:01:24.419Z,100082.72
2018-12-21T04:02:30.838Z,100087.41
2018-12-21T04:03:37.335Z,100079.58
2018-12-21T04:04:43.809Z,100082.17
2018-12-21T04:05:50.188Z,100080.61
2018-12-21T04:06:56.656Z,100075.63
2018-12-21T04:08:03.181Z,100076.29
2018-12-21T04:09:09.370Z,100077.25
2018-12-21T04:10:16.780Z,100072.27
2018-12-21T04:11:23.241Z,100076.71
2018-12-21T04:12:30.522Z,100069.12
2018-12-21T04:13:37.246Z,100068.50
2018-12-21T04:14:43.744Z,100062.75
2018-12-21T04:15:50.898Z,100066.73
2018-12-21T04:16:57.723Z,100065.15
2018-12-21T04:18:04.251Z,100057.21
2018-12-21T04:19:10.428Z,100062.39
2018-12-21T04:20:16.735Z,100060.25
2018-12-21T04:21:23.181Z,100063.25
2018-12-21T04:22:33.930Z,100062.03
2018-12-21T04:23:36.058Z,100056.76
2018-12-21T04:24:42.449Z,100059.60
2018-12-21T04:25:48.621Z,100055.84
2018-12-21T04:26:55.137Z,100057.19
2018-12-21T04:28:01.644Z,100054.37
2018-12-21T04:29:08.161Z,100050.32
2018-12-21T04:30:14.776Z,100052.37
2018-12-21T04:31:21.189Z,100058.52
2018-12-21T04:32:27.549Z,100059.47
2018-12-21T04:33:34.895Z,100063.86
2018-12-21T04:34:40.899Z,100060.02
2018-12-21T04:35:48.224Z,100055.44
2018-12-21T04:36:55.390Z,100050.63
2018-12-21T04:38:01.793Z,100053.67
2018-12-21T04:39:08.193Z,100055.13
2018-12-21T04:40:15.722Z,100050.63
2018-12-21T04:41:23.556Z,100047.66
2018-12-21T04:42:31.103Z,100054.42
2018-12-21T04:43:38.239Z,100049.64
2018-12-21T04:44:45.020Z,100043.80
2018-12-21T04:45:53.366Z,100050.82
2018-12-21T04:47:00.689Z,100051.23
2018-12-21T04:48:08.012Z,100051.55
2018-12-21T04:49:15.676Z,100048.16
2018-12-21T04:50:21.840Z,100051.78
2018-12-21T04:51:28.998Z,100048.92
2018-12-21T04:52:42.924Z,100044.74
2018-12-21T04:53:42.170Z,100040.53
2018-12-21T04:54:48.507Z,100042.72
2018-12-21T04:55:56.664Z,100037.50
2018-12-21T04:57:03.773Z,100041.83
2018-12-21T04:58:10.217Z,100036.97
2018-12-21T04:59:18.455Z,100043.85
2018-12-21T05:00:25.656Z,100035.03
2018-12-21T05:01:32.765Z,100027.50
2018-12-21T05:02:39.834Z,100021.00
2018-12-21T05:03:46.349Z,100024.44
2018-12-21T05:04:52.735Z,100023.23
2018-12-21T05:05:59.176Z,100025.11
2018-12-21T05:07:12.219Z,100026.22
2018-12-21T05:08:11.955Z,100021.37
2018-12-21T05:09:18.052Z,100023.05
2018-12-21T05:10:24.462Z,100018.66
2018-12-21T05:11:30.867Z,100015.39
2018-12-21T05:12:37.257Z,100024.27
2018-12-21T05:13:44.256Z,100022.77
2018-12-21T05:14:52.452Z,100020.66
2018-12-21T05:15:58.569Z,100021.92
2018-12-21T05:17:04.898Z,100016.52
2018-12-21T05:18:11.325Z,100016.00
2018-12-21T05:19:18.425Z,100008.58
2018-12-21T05:20:25.768Z,100007.61
2018-12-21T05:21:32.931Z,100012.97
2018-12-21T05:22:40.577Z,100016.05
2018-12-21T05:23:46.990Z,100007.16
2018-12-21T05:24:54.091Z,100004.72
2018-12-21T05:26:02.720Z,100001.78
2018-12-21T05:27:10.280Z,100006.94
2018-12-21T05:28:16.338Z,100001.73
2018-12-21T05:29:23.941Z,100000.50
2018-12-21T05:30:30.324Z,99998.38
2018-12-21T05:31:38.211Z,99998.58
2018-12-21T05:32:45.394Z,99991.58
2018-12-21T05:33:52.007Z,99995.91
2018-12-21T05:34:58.404Z,99993.02
2018-12-21T05:36:04.448Z,99987.70
2018-12-21T05:37:10.846Z,99988.02
2018-12-21T05:38:21.769Z,99989.98
2018-12-21T05:39:28.175Z,99981.37
2018-12-21T05:40:35.768Z,99978.27
2018-12-21T05:41:42.373Z,99978.13
2018-12-21T05:42:49.464Z,99982.77
2018-12-21T05:43:56.153Z,99971.53
2018-12-21T05:45:02.898Z,99967.57
2018-12-21T05:46:10.166Z,99966.83
2018-12-21T05:47:17.420Z,99967.44
2018-12-21T05:48:24.682Z,99958.19
2018-12-21T05:49:32.339Z,99964.58
2018-12-21T05:50:38.475Z,99965.04
2018-12-21T05:51:45.572Z,99965.00
2018-12-21T05:52:53.570Z,99962.63
2018-12-21T05:53:59.056Z,99961.50
2018-12-21T05:55:05.083Z,99957.39
2018-12-21T05:56:11.384Z,99955.20
2018-12-21T05:57:18.108Z,99954.78
2018-12-21T05:58:24.482Z,99952.18
2018-12-21T05:59:30.862Z,99954.63
2018-12-21T06:00:37.885Z,99955.36
2018-12-21T06:01:44.275Z,99949.20
2018-12-21T06:02:51.547Z,99948.99
2018-12-21T06:03:58.279Z,99940.95
2018-12-21T06:05:03.957Z,99947.98
2018-12-21T06:06:10.274Z,99946.19
2018-12-21T06:07:16.614Z,99939.87
2018-12-21T06:08:22.981Z,99946.09
2018-12-21T06:09:29.340Z,99951.31
2018-12-21T06:10:35.648Z,99946.61
2018-12-21T06:11:42.657Z,99950.69
2018-12-21T06:12:49.166Z,99951.34
2018-12-21T06:13:56.222Z,99949.17
2018-12-21T06:15:02.244Z,99948.63
2018-12-21T06:16:08.415Z,99942.55
2018-12-21T06:17:15.661Z,99943.57
2018-12-21T06:18:21.935Z,99933.79
2018-12-21T06:19:28.452Z,99939.74
2018-12-21T06:20:35.346Z,99933.77
2018-12-21T06:21:42.186Z,99930.67
2018-12-21T06:22:49.838Z,99922.19
2018-12-21T06:23:56.192Z,99926.74
2018-12-21T06:25:02.555Z,99927.20
2018-12-21T06:26:09.194Z,99923.33
2018-12-21T06:27:15.300Z,99918.36
2018-12-21T06:28:22.848Z,99913.54
2018-12-21T06:29:29.127Z,99917.39
2018-12-21T06:30:36.093Z,99915.08
2018-12-21T06:31:42.407Z,99909.68
2018-12-21T06:32:48.713Z,99907.85
2018-12-21T06:33:55.001Z,99899.42
2018-12-21T06:35:02.180Z,99901.28
2018-12-21T06:36:10.308Z,99906.14
2018-12-21T06:37:17.349Z,99902.14
2018-12-21T06:38:24.928Z,99907.16
2018-12-21T06:39:31.622Z,99904.80
2018-12-21T06:40:39.438Z,99905.30
2018-12-21T06:41:46.423Z,99905.22
2018-12-21T06:42:53.890Z,99900.33
2018-12-21T06:44:00.897Z,99897.77
2018-12-21T06:45:07.222Z,99897.03
2018-12-21T06:46:14.564Z,99897.04
2018-12-21T06:47:21.738Z,99895.68
2018-12-21T06:48:29.729Z,99888.05
2018-12-21T06:49:36.467Z,99889.14
2018-12-21T06:50:44.356Z,99890.08
2018-12-21T06:51:52.423Z,99897.58
2018-12-21T06:53:00.958Z,99894.47
2018-12-21T06:54:08.034Z,99893.00
2018-12-21T06:55:17.060Z,99886.13
2018-12-21T06:56:25.526Z,99882.47
2018-12-21T06:57:33.154Z,99885.23
2018-12-21T06:58:41.174Z,99880.19
2018-12-21T06:59:48.233Z,99889.31
2018-12-21T07:00:54.869Z,99890.53
2018-12-21T07:02:02.332Z,99888.09
2018-12-21T07:03:17.127Z,99883.94
2018-12-21T07:04:17.885Z,99878.91
2018-12-21T07:05:24.872Z,99879.56
2018-12-21T07:06:31.778Z,99868.20
2018-12-21T07:07:38.286Z,99871.08
2018-12-21T07:08:46.048Z,99871.80
2018-12-21T07:09:54.932Z,99872.61
2018-12-21T07:11:02.825Z,99866.03
2018-12-21T07:12:14.214Z,99858.48
2018-12-21T07:13:23.117Z,99856.34
2018-12-21T07:14:29.557Z,99853.56
2018-12-21T07:15:36.504Z,99858.13
2018-12-21T07:16:44.602Z,99850.48
2018-12-21T07:17:52.081Z,99846.63
2018-12-21T07:18:58.558Z,99846.48
2018-12-21T07:20:05.014Z,99842.42
2018-12-21T07:21:13.102Z,99837.78
2018-12-21T07:22:21.179Z,99845.14
2018-12-21T07:23:27.974Z,99837.30
2018-12-21T07:24:34.635Z,99834.95
2018-12-21T07:25:42.112Z,99833.87
2018-12-21T07:26:49.597Z,99832.37
2018-12-21T07:27:56.243Z,99828.53
2018-12-21T07:29:03.447Z,99820.94
2018-12-21T07:30:12.010Z,99814.84
2018-12-21T07:31:19.353Z,99814.26
2018-12-21T07:32:25.957Z,99810.65
2018-12-21T07:33:33.091Z,99808.98
2018-12-21T07:34:39.561Z,99802.97
2018-12-21T07:35:46.120Z,99801.80
2018-12-21T07:36:53.910Z,99804.06
2018-12-21T07:38:00.178Z,99800.45
2018-12-21T07:39:06.905Z,99800.17
2018-12-21T07:40:13.572Z,99801.13
2018-12-21T07:41:20.082Z,99801.59
2018-12-21T07:42:27.010Z,99796.52
2018-12-21T07:43:34.960Z,99802.36
2018-12-21T07:44:42.294Z,99805.27
2018-12-21T07:45:49.916Z,99803.80
2018-12-21T07:46:56.734Z,99802.61
2018-12-21T07:48:03.182Z,99788.05
2018-12-21T07:49:09.744Z,99780.92
2018-12-21T07:50:17.058Z,99789.26
2018-12-21T07:51:24.218Z,99790.03
2018-12-21T07:52:31.049Z,99788.05
2018-12-21T07:53:37.423Z,99792.63
2018-12-21T07:54:43.839Z,99788.09
2018-12-21T07:55:49.904Z,99789.89
2018-12-21T07:56:56.368Z,99787.30
2018-12-21T07:58:02.777Z,99791.59
2018-12-21T07:59:08.793Z,99795.48
2018-12-21T08:00:15.177Z,99782.83
2018-12-21T08:01:22.872Z,99777.99
2018-12-21T08:02:29.601Z,99771.87
2018-12-21T08:03:36.044Z,99763.69
2018-12-21T08:04:44.202Z,99771.37
2018-12-21T08:05:50.582Z,99762.41
2018-12-21T08:06:57.014Z,99771.47
2018-12-21T08:08:03.439Z,99764.81
2018-12-21T08:09:09.859Z,99767.38
2018-12-21T08:10:16.716Z,99760.13
2018-12-21T08:11:23.217Z,99764.81
2018-12-21T08:12:29.575Z,99768.08
2018-12-21T08:13:36.719Z,99769.11
2018-12-21T08:14:44.077Z,99763.29
2018-12-21T08:15:51.624Z,99768.69
2018-12-21T08:17:00.354Z,99770.09
2018-12-21T08:18:06.398Z,99769.50
2018-12-21T08:19:12.940Z,99773.52
2018-12-21T08:20:19.828Z,99773.92
2018-12-21T08:21:26.248Z,99767.83
2018-12-21T08:22:32.638Z,99769.08
2018-12-21T08:23:44.298Z,99769.83
2018-12-21T08:24:47.242Z,99766.15
2018-12-21T08:25:52.072Z,99770.16
2018-12-21T08:26:58.519Z,99769.30
2018-12-21T08:28:04.754Z,99769.76
2018-12-21T08:29:11.411Z,99764.11
2018-12-21T08:30:17.885Z,99768.88
2018-12-21T08:31:24.660Z,99767.85
2018-12-21T08:32:32.453Z,99768.32
2018-12-21T08:33:38.880Z,99764.31
2018-12-21T08:34:45.282Z,99760.90
2018-12-21T08:35:51.762Z,99758.42
2018-12-21T08:36:58.247Z,99762.41
2018-12-21T08:38:04.718Z,99756.08
2018-12-21T08:39:11.153Z,99755.70
2018-12-21T08:40:18.040Z,99755.83
2018-12-21T08:41:24.472Z,99752.91
2018-12-21T08:42:30.552Z,99749.84
2018-12-21T08:43:37.010Z,99746.55
2018-12-21T08:44:43.427Z,99741.87
2018-12-21T08:45:50.151Z,99740.59
2018-12-21T08:46:56.611Z,99743.47
2018-12-21T08:48:03.015Z,99737.87
2018-12-21T08:49:09.595Z,99737.44
2018-12-21T08:50:16.106Z,99734.11
2018-12-21T08:51:22.499Z,99734.42
2018-12-21T08:52:28.901Z,99730.41
2018-12-21T08:53:35.343Z,99729.01
2018-12-21T08:54:41.766Z,99726.03
2018-12-21T08:55:48.172Z,99719.20
2018-12-21T08:56:54.286Z,99717.57
2018-12-21T08:58:00.725Z,99716.98
2018-12-21T08:59:07.101Z,99703.59
2018-12-21T09:00:12.913Z,99705.25
2018-12-21T09:01:19.336Z,99697.42
2018-12-21T09:02:25.669Z,99693.66
2018-12-21T09:03:32.074Z,99695.04
2018-12-21T09:04:38.414Z,99697.41
2018-12-21T09:05:44.822Z,99691.73
2018-12-21T09:06:51.180Z,99694.73
2018-12-21T09:07:59.983Z,99689.08
2018-12-21T09:09:06.275Z,99693.39
2018-12-21T09:10:13.977Z,99687.45
2018-12-21T09:11:22.264Z,99693.84
2018-12-21T09:12:31.232Z,99679.39
2018-12-21T09:13:39.828Z,99682.56
2018-12-21T09:14:46.957Z,99693.80
2018-12-21T09:15:54.516Z,99693.48
2018-12-21T09:17:02.233Z,99694.97
2018-12-21T09:18:09.581Z,99692.03
2018-12-21T09:19:16.932Z,99692.36
2018-12-21T09:20:24.418Z,99690.83
2018-12-21T09:21:33.061Z,99680.48
2018-12-21T09:22:41.647Z,99682.00
2018-12-21T09:23:49.269Z,99680.11
2018-12-21T09:24:56.229Z,99673.05
2018-12-21T09:26:03.414Z,99671.60
2018-12-21T09:27:11.195Z,99668.31
2018-12-21T09:28:19.175Z,99663.72
2018-12-21T09:29:26.767Z,99666.77
2018-12-21T09:30:34.274Z,99661.10
2018-12-21T09:31:44.668Z,99656.77
2018-12-21T09:32:51.911Z,99653.83
2018-12-21T09:34:00.698Z,99655.12
2018-12-21T09:35:08.411Z,99649.37
2018-12-21T09:36:16.144Z,99651.37
2018-12-21T09:37:24.248Z,99650.19
2018-12-21T09:38:31.720Z,99646.13
2018-12-21T09:39:39.291Z,99643.61
2018-12-21T09:40:46.672Z,99640.62
2018-12-21T09:41:55.039Z,99641.39
2018-12-21T09:43:04.447Z,99638.84
2018-12-21T09:44:13.050Z,99630.77
2018-12-21T09:45:21.328Z,99634.66
2018-12-21T09:46:27.919Z,99633.25
2018-12-21T09:47:34.833Z,99639.96
2018-12-21T09:48:43.401Z,99634.33
2018-12-21T09:49:51.955Z,99630.75
2018-12-21T09:50:59.591Z,99624.66
2018-12-21T09:52:08.652Z,99619.25
2018-12-21T09:53:16.545Z,99612.22
2018-12-21T09:54:23.608Z,99612.73
2018-12-21T09:55:30.559Z,99603.38
2018-12-21T09:56:37.389Z,99608.94
2018-12-21T09:57:44.071Z,99603.42
2018-12-21T09:58:52.144Z,99595.08
2018-12-21T10:00:00.802Z,99592.72
2018-12-21T10:01:07.754Z,99589.41
2018-12-21T10:02:14.187Z,99579.36
2018-12-21T10:03:20.842Z,99579.13
2018-12-21T10:04:27.526Z,99578.81
2018-12-21T10:05:34.017Z,99574.98
2018-12-21T10:06:41.305Z,99566.25
2018-12-21T10:07:49.538Z,99559.59
2018-12-21T10:08:56.610Z,99562.00
2018-12-21T10:10:02.840Z,99558.03
2018-12-21T10:11:09.723Z,99549.57
2018-12-21T10:12:17.266Z,99549.28
2018-12-21T10:13:24.160Z,99541.97
2018-12-21T10:14:30.476Z,99535.37
2018-12-21T10:15:37.219Z,99532.27
2018-12-21T10:16:44.796Z,99529.10
2018-12-21T10:17:52.054Z,99523.16
2018-12-21T10:18:59.207Z,99516.97
2018-12-21T10:20:05.959Z,99513.45
2018-12-21T10:21:14.157Z,99509.95
2018-12-21T10:22:21.741Z,99502.98
2018-12-21T10:23:29.650Z,99495.77
2018-12-21T10:24:37.833Z,99496.81
2018-12-21T10:25:44.753Z,99489.47
2018-12-21T10:26:52.313Z,99490.06
2018-12-21T10:27:59.400Z,99480.93
2018-12-21T10:29:06.544Z,99479.41
2018-12-21T10:30:14.354Z,99471.96
2018-12-21T10:31:21.673Z,99473.48
2018-12-21T10:32:28.504Z,99468.23
2018-12-21T10:33:35.054Z,99456.80
2018-12-21T10:34:41.682Z,99458.03
2018-12-21T10:35:49.827Z,99454.00
2018-12-21T10:36:56.837Z,99449.86
2018-12-21T10:38:06.218Z,99443.88
2018-12-21T10:39:13.678Z,99437.86
2018-12-21T10:40:23.371Z,99442.14
2018-12-21T10:41:29.716Z,99439.80
2018-12-21T10:42:36.374Z,99431.86
2018-12-21T10:43:43.082Z,99436.37
2018-12-21T10:44:49.545Z,99436.20
2018-12-21T10:45:56.123Z,99430.16
2018-12-21T10:47:03.173Z,99430.19
2018-12-21T10:48:10.513Z,99423.16
2018-12-21T10:49:16.820Z,99423.75
2018-12-21T10:50:23.410Z,99417.41
2018-12-21T10:51:30.281Z,99417.94
2018-12-21T10:52:38.967Z,99411.98
2018-12-21T10:53:46.698Z,99407.45
2018-12-21T10:54:50.920Z,99401.09
2018-12-21T10:55:57.236Z,99403.27
2018-12-21T10:57:03.576Z,99397.48
2018-12-21T10:58:09.886Z,99393.44
2018-12-21T10:59:21.060Z,99384.42
2018-12-21T11:00:22.676Z,99388.25
2018-12-21T11:01:29.063Z,99374.89
2018-12-21T11:02:35.391Z,99373.05
2018-12-21T11:03:41.705Z,99369.06
2018-12-21T11:04:48.048Z,99371.81
2018-12-21T11:05:54.359Z,99370.45
2018-12-21T11:07:00.680Z,99360.95
2018-12-21T11:08:08.408Z,99351.70
2018-12-21T11:09:16.009Z,99347.42
2018-12-21T11:10:23.202Z,99343.31
2018-12-21T11:11:29.562Z,99341.42
2018-12-21T11:12:35.925Z,99339.55
2018-12-21T11:13:42.660Z,99331.30
2018-12-21T11:14:50.068Z,99328.29
2018-12-21T11:15:57.141Z,99327.97
2018-12-21T11:17:04.926Z,99324.89
2018-12-21T11:18:11.949Z,99322.31
2018-12-21T11:19:18.963Z,99325.80
2018-12-21T11:20:26.192Z,99322.02
2018-12-21T11:21:33.709Z,99316.36
2018-12-21T11:22:41.148Z,99309.50
2018-12-21T11:23:47.678Z,99303.91
2018-12-21T11:24:53.905Z,99301.25
2018-12-21T11:26:00.486Z,99298.77
2018-12-21T11:27:07.314Z,99294.86
2018-12-21T11:28:14.507Z,99295.19
2018-12-21T11:29:21.320Z,99289.61
2018-12-21T11:30:28.193Z,99286.06
2018-12-21T11:31:35.250Z,99277.59
2018-12-21T11:32:42.569Z,99270.40
2018-12-21T11:33:49.463Z,99267.77
2018-12-21T11:34:55.989Z,99262.12
2018-12-21T11:36:02.290Z,99261.06
2018-12-21T11:37:08.646Z,99254.47
2018-12-21T11:38:15.041Z,99254.55
2018-12-21T11:39:21.355Z,99248.16
2018-12-21T11:40:27.628Z,99247.41
2018-12-21T11:41:33.889Z,99241.84
2018-12-21T11:42:39.911Z,99237.34
2018-12-21T11:43:46.294Z,99232.57
2018-12-21T11:44:52.617Z,99237.95
2018-12-21T11:45:58.936Z,99235.28
2018-12-21T11:47:05.848Z,99229.00
2018-12-21T11:48:12.192Z,99225.88
2018-12-21T11:49:18.486Z,99219.27
2018-12-21T11:50:24.774Z,99217.81
2018-12-21T11:51:31.089Z,99213.36
2018-12-21T11:52:37.477Z,99212.86
2018-12-21T11:53:43.785Z,99206.88
2018-12-21T11:54:50.136Z,99205.80
2018-12-21T11:55:56.481Z,99200.42
2018-12-21T11:57:02.830Z,99196.52
2018-12-21T11:58:09.136Z,99193.36
2018-12-21T11:59:15.447Z,99189.34
2018-12-21T12:00:21.482Z,99194.16
2018-12-21T12:01:27.843Z,99187.28
2018-12-21T12:02:34.213Z,99183.00
2018-12-21T12:03:40.586Z,99180.48
2018-12-21T12:04:46.887Z,99179.31
2018-12-21T12:05:53.216Z,99174.59
2018-12-21T12:06:59.328Z,99159.92
2018-12-21T12:08:05.277Z,99155.44
2018-12-21T12:09:11.672Z,99154.66
2018-12-21T12:10:18.023Z,99157.32
2018-12-21T12:11:24.379Z,99148.44
2018-12-21T12:12:30.724Z,99147.81
2018-12-21T12:13:37.059Z,99147.42
2018-12-21T12:14:43.356Z,99143.41
2018-12-21T12:15:49.648Z,99133.91
2018-12-21T12:16:55.572Z,99130.38
2018-12-21T12:18:02.009Z,99130.25
2018-12-21T12:19:08.242Z,99116.19
2018-12-21T12:20:14.608Z,99112.95
2018-12-21T12:21:20.992Z,99111.74
2018-12-21T12:22:27.332Z,99105.89
2018-12-21T12:23:33.586Z,99105.95
2018-12-21T12:24:39.883Z,99101.77
2018-12-21T12:25:46.256Z,99092.70
2018-12-21T12:26:52.614Z,99089.19
2018-12-21T12:27:58.989Z,99087.67
2018-12-21T12:29:05.276Z,99082.48
2018-12-21T12:30:11.726Z,99074.52
2018-12-21T12:31:18.974Z,99064.44
2018-12-21T12:32:25.319Z,99066.50
2018-12-21T12:33:31.635Z,99070.34
2018-12-21T12:34:37.970Z,99056.52
2018-12-21T12:35:44.322Z,99056.89
2018-12-21T12:36:50.706Z,99050.49
2018-12-21T12:37:57.069Z,99058.77
2018-12-21T12:39:03.167Z,99050.88
2018-12-21T12:40:09.142Z,99055.16
2018-12-21T12:41:15.454Z,99046.42
2018-12-21T12:42:21.868Z,99047.20
2018-12-21T12:43:28.815Z,99046.42
2018-12-21T12:44:35.137Z,99045.77
2018-12-21T12:45:41.429Z,99043.33
2018-12-21T12:46:47.732Z,99042.42
2018-12-21T12:47:54.154Z,99043.03
2018-12-21T12:49:00.495Z,99038.58
2018-12-21T12:50:06.520Z,99043.23
2018-12-21T12:51:12.834Z,99036.82
2018-12-21T12:52:19.239Z,99034.33
2018-12-21T12:53:25.203Z,99033.63
2018-12-21T12:54:31.484Z,99026.05
2018-12-21T12:55:37.788Z,99022.86